Terminal Aerodrome Forecast
Issued by NWS

Home | Current Version | Previous Version | Text Only | Print | Product List | Glossary On
Versions: 1 2 3 4 5 6 7 8 9 10 11 12 13 14 15 16 17 18 19 20 21 22 23 24 25 26 27 28 29 30 31
000
FTUS45 KGJT 050528
TAFASE
TAF
KASE 050528Z 0506/0606 22005KT P6SM SCT100
     FM050700 20006KT P6SM BKN150
     FM051000 21005KT P6SM SCT070 BKN090
     FM051600 34006KT P6SM VCSH SCT050 BKN070
     FM051900 30008KT P6SM VCTS SCT050CB BKN070
     FM060000 13012KT 6SM -SHRA OVC050=

USA.gov is the U.S. government's official web portal to all federal, state and local government web resources and services.